Time;durP1;ratioP1;P1;durP2;ratioP2;P2;SDS_P1;SDS_P2;PMS_P1;PMS_P2;Temp;Humidity;BMP_temperature;BMP_pressure;BME280_temperature;BME280_humidity;BME280_pressure;Samples;Min_cycle;Max_cycle;Signal;HPM_P1;HPM_P2
2023/05/09 00:03:15;;;;;;;24.25;12.75;;;15.00;36.30;;;;;;20638755;28;20633;-40
2023/05/09 00:13:16;;;;;;;39.88;16.27;;;15.00;36.30;;;;;;20636996;28;20045;-40
2023/05/09 00:23:17;;;;;;;34.75;15.63;;;15.00;36.90;;;;;;20640154;28;20038;-40
2023/05/09 00:33:19;;;;;;;35.97;17.85;;;14.90;42.40;;;;;;20634320;28;20053;-40
2023/05/09 00:43:20;;;;;;;39.25;18.45;;;14.90;48.20;;;;;;20637430;28;20035;-40
2023/05/09 00:53:23;;;;;;;33.97;14.90;;;14.90;48.90;;;;;;20639102;28;20049;-40
2023/05/09 01:03:24;;;;;;;34.88;15.73;;;14.90;54.80;;;;;;20639076;28;20034;-41
2023/05/09 01:13:34;;;;;;;35.83;15.80;;;14.80;48.40;;;;;;20637743;28;20046;-40
2023/05/09 01:23:44;;;;;;;31.73;15.15;;;14.70;48.10;;;;;;20636396;28;20048;-40
2023/05/09 01:33:51;;;;;;;25.55;12.75;;;14.70;43.90;;;;;;20639228;28;20103;-39
2023/05/09 01:43:53;;;;;;;29.70;13.25;;;14.60;44.00;;;;;;20647503;28;20075;-39
2023/05/09 01:53:57;;;;;;;23.55;13.05;;;14.60;46.50;;;;;;20649266;28;20069;-42
2023/05/09 02:03:58;;;;;;;24.63;12.25;;;14.50;47.80;;;;;;20656646;28;20304;-42
2023/05/09 02:13:59;;;;;;;30.85;13.35;;;14.40;51.30;;;;;;20650137;28;20049;-42
2023/05/09 02:24:01;;;;;;;27.00;12.00;;;14.40;54.30;;;;;;20646741;28;20049;-42
2023/05/09 02:34:04;;;;;;;23.02;12.95;;;14.40;56.00;;;;;;20648324;28;20304;-42
2023/05/09 02:44:05;;;;;;;26.95;11.98;;;14.40;60.00;;;;;;20645512;28;20049;-42
2023/05/09 02:54:06;;;;;;;20.83;10.20;;;14.30;60.50;;;;;;20656553;28;20053;-42
2023/05/09 03:04:07;;;;;;;26.35;10.45;;;14.30;63.50;;;;;;20654462;28;20192;-42
2023/05/09 03:14:09;;;;;;;23.83;10.35;;;14.20;69.30;;;;;;20651184;28;20485;-42
2023/05/09 03:24:10;;;;;;;15.00;8.63;;;14.20;78.10;;;;;;20648334;28;20403;-42
2023/05/09 03:34:13;;;;;;;17.20;8.07;;;14.20;77.20;;;;;;20656207;28;20041;-43
2023/05/09 03:44:15;;;;;;;19.05;8.10;;;14.10;84.30;;;;;;20656297;28;20038;-42
2023/05/09 03:54:16;;;;;;;15.27;8.50;;;14.00;86.30;;;;;;20648444;28;20049;-42
2023/05/09 04:04:17;;;;;;;16.25;7.55;;;14.00;87.00;;;;;;20648579;28;20065;-42
2023/05/09 04:14:18;;;;;;;16.38;7.22;;;14.10;84.50;;;;;;20647945;28;20050;-42
2023/05/09 04:24:19;;;;;;;17.42;7.63;;;14.10;78.10;;;;;;20653456;28;20038;-42
2023/05/09 04:34:20;;;;;;;17.42;8.70;;;14.00;83.20;;;;;;20642020;28;20042;-42
2023/05/09 04:44:22;;;;;;;18.83;8.52;;;14.10;80.30;;;;;;20643127;28;20061;-42
2023/05/09 04:54:23;;;;;;;15.30;8.70;;;14.00;93.80;;;;;;20640949;28;20044;-42
2023/05/09 05:04:24;;;;;;;19.63;9.05;;;14.10;96.00;;;;;;20639049;28;20034;-43
2023/05/09 05:14:25;;;;;;;19.23;9.77;;;14.00;99.90;;;;;;20641579;28;21990;-43
2023/05/09 05:24:26;;;;;;;19.95;9.93;;;14.10;97.00;;;;;;20652419;28;20038;-41
2023/05/09 05:34:27;;;;;;;15.18;8.57;;;14.20;97.70;;;;;;20647356;28;20534;-42
2023/05/09 05:44:29;;;;;;;15.57;9.07;;;14.30;91.80;;;;;;20655011;28;20402;-42
2023/05/09 05:54:30;;;;;;;16.05;8.07;;;14.30;70.20;;;;;;20658218;28;20049;-42
2023/05/09 06:04:31;;;;;;;21.50;8.65;;;14.40;61.20;;;;;;20659861;28;20588;-42
2023/05/09 06:14:32;;;;;;;16.38;8.93;;;14.30;67.00;;;;;;20662174;28;20045;-42
2023/05/09 06:24:33;;;;;;;16.13;8.50;;;14.30;89.40;;;;;;20662054;28;20415;-42
2023/05/09 06:34:34;;;;;;;15.60;8.10;;;14.20;96.60;;;;;;20659065;28;20041;-42
2023/05/09 06:44:35;;;;;;;15.75;9.55;;;14.10;99.90;;;;;;20657678;28;20045;-42
2023/05/09 06:54:36;;;;;;;19.90;10.35;;;14.00;99.90;;;;;;20660863;28;20042;-42
2023/05/09 07:04:37;;;;;;;23.60;9.93;;;13.90;99.90;;;;;;20651953;28;20680;-42
2023/05/09 07:14:40;;;;;;;19.75;8.50;;;13.80;99.90;;;;;;20665087;28;20060;-43
2023/05/09 07:24:43;;;;;;;17.27;9.50;;;13.80;99.90;;;;;;20657532;28;20031;-42
2023/05/09 07:34:44;;;;;;;17.40;8.90;;;13.80;99.90;;;;;;20656508;28;20093;-43
2023/05/09 07:44:45;;;;;;;16.05;8.95;;;13.80;99.90;;;;;;20649508;28;20033;-43
2023/05/09 07:54:46;;;;;;;18.20;9.32;;;13.80;99.90;;;;;;20653002;28;20397;-43
2023/05/09 08:04:47;;;;;;;18.95;8.68;;;13.80;99.90;;;;;;20646937;28;20463;-43
2023/05/09 08:14:48;;;;;;;19.60;8.55;;;13.90;99.90;;;;;;20648426;28;20042;-43
2023/05/09 08:24:49;;;;;;;17.35;9.98;;;13.80;99.90;;;;;;20644147;28;20034;-41
2023/05/09 08:34:51;;;;;;;13.73;7.82;;;13.80;99.90;;;;;;20645659;28;20052;-42
2023/05/09 08:44:52;;;;;;;15.00;7.65;;;13.80;99.90;;;;;;20635955;28;20038;-41
2023/05/09 08:54:53;;;;;;;13.23;6.60;;;13.80;99.90;;;;;;20637263;28;20045;-41
2023/05/09 09:04:54;;;;;;;21.30;7.10;;;13.80;99.90;;;;;;20636108;28;20072;-42
2023/05/09 09:15:01;;;;;;;13.15;6.90;;;13.90;99.90;;;;;;20650004;28;20497;-42
2023/05/09 09:25:03;;;;;;;13.10;6.63;;;14.00;99.90;;;;;;20633313;28;20042;-42
2023/05/09 09:35:11;;;;;;;12.88;6.65;;;14.00;99.90;;;;;;20639302;28;20034;-42
2023/05/09 09:45:16;;;;;;;11.75;6.45;;;14.10;99.90;;;;;;20641632;28;20128;-42
2023/05/09 09:55:18;;;;;;;11.57;6.10;;;14.10;99.90;;;;;;20636847;28;20045;-43
2023/05/09 10:05:26;;;;;;;14.27;7.03;;;14.10;99.90;;;;;;20657789;28;20045;-42
2023/05/09 10:15:30;;;;;;;16.65;8.23;;;14.20;99.90;;;;;;20658755;28;20086;-41
2023/05/09 10:25:40;;;;;;;13.52;7.57;;;14.20;99.90;;;;;;20662985;28;20038;-40
2023/05/09 10:35:45;;;;;;;11.07;5.85;;;14.20;99.90;;;;;;20658021;28;20039;-40
2023/05/09 10:45:46;;;;;;;10.57;5.90;;;14.10;99.90;;;;;;20660286;28;20042;-40
2023/05/09 10:55:54;;;;;;;12.75;6.47;;;14.10;99.90;;;;;;20667784;28;20042;-41
2023/05/09 11:05:56;;;;;;;13.00;7.15;;;14.10;99.90;;;;;;20663802;28;20109;-41
2023/05/09 11:16:00;;;;;;;12.35;6.50;;;14.20;99.90;;;;;;20675045;28;20061;-41
2023/05/09 11:26:06;;;;;;;11.70;6.70;;;14.30;99.90;;;;;;20669155;28;20046;-41
2023/05/09 11:36:28;;;;;;;9.27;6.20;;;14.50;99.90;;;;;;20668656;28;20037;-42
2023/05/09 11:46:29;;;;;;;9.90;6.28;;;14.40;99.90;;;;;;20672745;28;21534;-41
2023/05/09 11:56:30;;;;;;;9.95;5.63;;;14.40;99.90;;;;;;20668072;28;20037;-41
2023/05/09 12:06:32;;;;;;;11.23;6.25;;;14.40;99.90;;;;;;20666516;28;20059;-42
2023/05/09 12:16:33;;;;;;;11.93;5.90;;;14.30;99.90;;;;;;20666988;28;20057;-42
2023/05/09 12:26:35;;;;;;;11.55;5.68;;;14.30;99.90;;;;;;20653359;28;20048;-42
2023/05/09 12:36:36;;;;;;;9.77;6.03;;;14.40;99.90;;;;;;20652718;28;20034;-42
2023/05/09 12:46:37;;;;;;;9.32;5.32;;;14.50;99.90;;;;;;20658483;28;20045;-42
2023/05/09 12:56:38;;;;;;;10.85;5.45;;;14.50;99.90;;;;;;20647874;28;20042;-42
2023/05/09 13:06:48;;;;;;;10.18;5.03;;;14.50;99.90;;;;;;20652195;28;20133;-42
2023/05/09 13:16:49;;;;;;;8.95;5.30;;;14.50;99.90;;;;;;20641839;28;20707;-42
2023/05/09 13:26:51;;;;;;;11.57;4.68;;;14.50;99.90;;;;;;20658685;28;20061;-42
2023/05/09 13:36:52;;;;;;;8.57;4.03;;;14.50;99.90;;;;;;20670054;28;20413;-42
2023/05/09 13:46:54;;;;;;;9.70;4.88;;;14.50;99.90;;;;;;20676558;28;20042;-42
2023/05/09 13:56:55;;;;;;;6.13;4.32;;;14.50;99.90;;;;;;20677061;28;20042;-41
2023/05/09 14:06:57;;;;;;;7.30;3.72;;;14.40;99.90;;;;;;20680232;28;20053;-43
2023/05/09 14:16:59;;;;;;;6.03;4.22;;;14.40;99.90;;;;;;20675348;28;20038;-42
2023/05/09 14:27:00;;;;;;;7.32;3.60;;;14.40;99.90;;;;;;20675416;28;20042;-42
2023/05/09 14:37:01;;;;;;;6.68;3.45;;;14.40;99.90;;;;;;20670251;28;20042;-42
2023/05/09 14:47:03;;;;;;;7.15;4.50;;;14.50;99.90;;;;;;20645462;28;20037;-43
2023/05/09 14:57:06;;;;;;;8.90;5.78;;;14.40;99.90;;;;;;20663581;28;20034;-43
2023/05/09 15:07:07;;;;;;;8.82;4.93;;;14.40;99.90;;;;;;20644203;28;20046;-43
2023/05/09 15:17:08;;;;;;;9.07;5.00;;;14.30;99.90;;;;;;20656480;28;20042;-41
2023/05/09 15:27:09;;;;;;;8.65;5.57;;;14.20;99.90;;;;;;20655732;28;20189;-43
2023/05/09 15:37:10;;;;;;;9.95;6.00;;;14.20;99.90;;;;;;20646914;28;20050;-43
2023/05/09 15:47:12;;;;;;;8.07;4.43;;;14.30;99.90;;;;;;20642090;28;20045;-43
2023/05/09 15:57:13;;;;;;;7.53;4.35;;;14.30;99.90;;;;;;20655598;28;20045;-43
2023/05/09 16:07:14;;;;;;;10.15;5.43;;;14.30;99.90;;;;;;20641381;28;20122;-43
2023/05/09 16:17:15;;;;;;;7.50;4.22;;;14.40;99.90;;;;;;20651393;28;20057;-42
2023/05/09 16:27:16;;;;;;;7.38;4.28;;;14.50;99.90;;;;;;20643101;28;20052;-43
2023/05/09 16:37:20;;;;;;;5.85;3.65;;;14.40;99.90;;;;;;20653995;28;20038;-42
2023/05/09 16:47:21;;;;;;;6.00;3.60;;;14.40;99.90;;;;;;20648457;28;20038;-43
2023/05/09 16:57:22;;;;;;;5.90;3.55;;;14.40;99.90;;;;;;20642762;28;20046;-42
2023/05/09 17:07:23;;;;;;;6.22;2.90;;;14.30;99.90;;;;;;20646149;28;20053;-42
2023/05/09 17:17:24;;;;;;;4.57;2.67;;;14.20;99.90;;;;;;20661482;28;20049;-42
2023/05/09 17:27:25;;;;;;;8.02;2.42;;;14.10;99.90;;;;;;20640489;28;20065;-42
2023/05/09 17:37:26;;;;;;;4.72;2.63;;;14.20;99.90;;;;;;20640465;28;20387;-42
2023/05/09 17:47:28;;;;;;;5.05;2.67;;;14.20;99.90;;;;;;20653317;28;20401;-43
2023/05/09 17:57:29;;;;;;;7.75;3.95;;;14.10;99.90;;;;;;20656504;28;20080;-42
2023/05/09 18:07:30;;;;;;;5.28;2.90;;;14.00;99.90;;;;;;20654611;28;20054;-41
2023/05/09 18:17:31;;;;;;;4.88;2.45;;;14.00;99.90;;;;;;20650364;28;20397;-41
2023/05/09 18:27:32;;;;;;;3.70;2.22;;;14.00;99.90;;;;;;20660285;28;20042;-41
2023/05/09 18:37:35;;;;;;;3.88;1.70;;;13.90;99.90;;;;;;20656933;28;20038;-41
2023/05/09 18:47:37;;;;;;;2.67;1.63;;;13.80;99.90;;;;;;20656103;28;20489;-41
2023/05/09 18:57:38;;;;;;;3.75;2.10;;;13.70;99.90;;;;;;20664992;28;20034;-41
2023/05/09 19:07:39;;;;;;;3.55;2.00;;;13.60;99.90;;;;;;20652626;28;20045;-41
2023/05/09 19:17:40;;;;;;;4.07;2.05;;;13.70;99.90;;;;;;20649875;28;20049;-41
2023/05/09 19:27:41;;;;;;;3.38;1.70;;;13.50;99.90;;;;;;20636008;28;20406;-41
2023/05/09 19:37:42;;;;;;;3.50;1.90;;;13.40;99.90;;;;;;20637270;28;20049;-51
2023/05/09 19:47:43;;;;;;;6.10;2.55;;;13.40;99.90;;;;;;20630446;28;20057;-41
2023/05/09 19:57:44;;;;;;;6.72;2.90;;;13.30;99.90;;;;;;20631219;28;20405;-41
2023/05/09 20:07:45;;;;;;;5.97;3.25;;;13.20;99.90;;;;;;20617655;28;20050;-42
2023/05/09 20:17:47;;;;;;;5.28;2.78;;;13.20;99.90;;;;;;20626406;28;20188;-43
2023/05/09 20:27:48;;;;;;;6.65;4.15;;;13.10;99.90;;;;;;20636583;28;20046;-42
2023/05/09 20:37:49;;;;;;;6.78;3.55;;;13.00;99.90;;;;;;20630486;28;20605;-41
2023/05/09 20:47:50;;;;;;;5.43;2.83;;;13.10;99.90;;;;;;20641646;28;20033;-41
2023/05/09 20:57:51;;;;;;;8.75;4.03;;;13.00;99.90;;;;;;20644811;28;20041;-41
2023/05/09 21:07:52;;;;;;;8.38;3.33;;;13.10;99.90;;;;;;20644865;28;20042;-41
2023/05/09 21:17:54;;;;;;;9.63;4.70;;;13.10;99.90;;;;;;20631805;28;20462;-41
2023/05/09 21:27:55;;;;;;;10.20;4.78;;;13.10;99.90;;;;;;20631025;28;20558;-40
2023/05/09 21:37:56;;;;;;;11.35;5.07;;;13.10;99.90;;;;;;20621288;28;20046;-43
2023/05/09 21:47:57;;;;;;;11.75;5.68;;;13.00;99.90;;;;;;20624713;28;20042;-40
2023/05/09 21:57:58;;;;;;;11.68;6.25;;;13.00;99.90;;;;;;20628287;28;20061;-42
2023/05/09 22:07:59;;;;;;;22.92;10.45;;;13.00;99.90;;;;;;20634250;28;20042;-42
2023/05/09 22:18:00;;;;;;;18.40;8.60;;;13.10;99.90;;;;;;20643332;28;20049;-41
2023/05/09 22:28:02;;;;;;;21.42;9.02;;;12.90;99.90;;;;;;20636386;28;20034;-41
2023/05/09 22:38:03;;;;;;;18.63;10.45;;;12.90;99.90;;;;;;20644790;28;20038;-41
2023/05/09 22:48:04;;;;;;;24.67;11.25;;;13.00;99.90;;;;;;20652142;28;20214;-41
2023/05/09 22:58:05;;;;;;;24.55;10.02;;;12.90;99.90;;;;;;20639947;28;20046;-41
2023/05/09 23:08:07;;;;;;;24.77;12.00;;;12.90;99.90;;;;;;20644104;28;20066;-41
2023/05/09 23:18:08;;;;;;;26.17;11.60;;;12.90;99.90;;;;;;20637378;28;20069;-41
2023/05/09 23:28:09;;;;;;;25.75;11.80;;;12.80;99.90;;;;;;20638043;28;21300;-41
2023/05/09 23:38:10;;;;;;;24.25;10.35;;;12.90;99.90;;;;;;20638459;28;20525;-41
2023/05/09 23:48:11;;;;;;;22.70;10.85;;;12.80;99.90;;;;;;20643615;28;21252;-41
2023/05/09 23:58:12;;;;;;;27.73;11.55;;;12.80;99.90;;;;;;20641051;28;20081;-43
